Private Wetterstation Grnau im Almtal
www.gruenau.tv

Wetterdaten: aktuell Samstag, 31.07.2021 01:30
Datum Zeit Temperatur Temp. min Temp. max Luftfeuchte Luftdruck Regen Wind Richtung Richtung Sonne ET UV Solar Taupunkt Windchill Windben
31.07.2021 01:30 17,2 C 17,2 C 17,3 C 77 % 1011,2 hPa 0,4 l/m 4,4 km/h (1 Bft) S 182 0 min 0,025 mm 0,0 UV-I 0 W/m 13,1 C 17,2 C 8,0 km/h (2 Bft)
31.07.2021 00:30 17,3 C 17,3 C 17,3 C 79 % 1011,3 hPa 1,8 l/m 3,3 km/h (1 Bft) SO 124 0 min 0,000 mm 0,0 UV-I 0 W/m 13,6 C 17,3 C 6,4 km/h (2 Bft)
30.07.2021 23:30 18,0 C 17,8 C 18,0 C 82 % 1011,4 hPa 11,8 l/m 2,0 km/h (1 Bft) N 5 0 min 0,025 mm 0,0 UV-I 0 W/m 14,9 C 18,0 C 6,4 km/h (2 Bft)
30.07.2021 22:30 20,8 C 20,8 C 20,8 C 80 % 1008,5 hPa 0,0 l/m 4,6 km/h (1 Bft) O-SO 109 0 min 0,026 mm 0,0 UV-I 0 W/m 17,2 C 20,8 C 9,7 km/h (2 Bft)
30.07.2021 21:30 21,2 C 21,2 C 21,3 C 79 % 1007,9 hPa 0,0 l/m 3,4 km/h (1 Bft) O 95 0 min 0,025 mm 0,0 UV-I 0 W/m 17,4 C 21,2 C 8,0 km/h (2 Bft)
30.07.2021 20:30 22,7 C 22,7 C 22,7 C 80 % 1007,5 hPa 0,0 l/m 0,4 km/h (0 Bft) O-NO 60 0 min 0,051 mm 0,0 UV-I 7 W/m 19,1 C 22,7 C 4,8 km/h (1 Bft)
30.07.2021 19:30 24,7 C 24,7 C 24,8 C 77 % 1007,7 hPa 0,0 l/m 0,1 km/h (0 Bft) N 357 30 min 0,076 mm 0,0 UV-I 44 W/m 20,4 C 24,7 C 1,6 km/h (1 Bft)
30.07.2021 18:30 25,1 C 25,1 C 25,2 C 76 % 1007,4 hPa 0,0 l/m 0,3 km/h (0 Bft) N 357 0 min 0,102 mm 0,5 UV-I 132 W/m 20,6 C 25,1 C 1,6 km/h (1 Bft)
30.07.2021 17:30 26,3 C 26,3 C 26,6 C 71 % 1007,9 hPa 0,0 l/m 1,2 km/h (1 Bft) N 357 5 min 0,279 mm 1,0 UV-I 156 W/m 20,6 C 26,3 C 3,2 km/h (1 Bft)
30.07.2021 16:30 28,2 C 28,1 C 28,2 C 52 % 1007,8 hPa 0,0 l/m 3,6 km/h (1 Bft) N 7 50 min 0,432 mm 3,8 UV-I 621 W/m 17,4 C 28,2 C 8,0 km/h (2 Bft)
30.07.2021 15:30 28,0 C 28,0 C 28,2 C 54 % 1008,4 hPa 0,0 l/m 4,6 km/h (1 Bft) N-NW 343 50 min 0,559 mm 5,5 UV-I 390 W/m 17,8 C 28,0 C 9,7 km/h (2 Bft)
30.07.2021 14:30 27,2 C 27,1 C 27,2 C 60 % 1009,1 hPa 0,0 l/m 9,7 km/h (2 Bft) NW 321 60 min 0,533 mm 7,1 UV-I 788 W/m 18,7 C 26,6 C 17,7 km/h (3 Bft)
30.07.2021 13:30 26,3 C 26,0 C 26,3 C 59 % 1009,7 hPa 0,0 l/m 7,3 km/h (2 Bft) NW 311 25 min 0,356 mm 7,8 UV-I 833 W/m 17,6 C 26,1 C 14,5 km/h (3 Bft)
30.07.2021 12:30 25,2 C 25,2 C 25,2 C 64 % 1010,3 hPa 0,0 l/m 7,5 km/h (2 Bft) NW 313 25 min 0,432 mm 4,8 UV-I 427 W/m 17,9 C 24,9 C 14,5 km/h (3 Bft)
30.07.2021 11:30 24,5 C 24,2 C 24,5 C 70 % 1010,8 hPa 0,0 l/m 2,5 km/h (1 Bft) N 5 50 min 0,304 mm 4,6 UV-I 450 W/m 18,7 C 24,5 C 6,4 km/h (2 Bft)
30.07.2021 10:30 22,3 C 22,2 C 22,3 C 72 % 1011,1 hPa 0,0 l/m 3,3 km/h (1 Bft) N 8 35 min 0,229 mm 3,7 UV-I 459 W/m 17,0 C 22,3 C 4,8 km/h (1 Bft)
30.07.2021 09:30 20,3 C 20,1 C 20,3 C 77 % 1011,4 hPa 0,0 l/m 1,1 km/h (1 Bft) N-NW 334 45 min 0,203 mm 3,1 UV-I 332 W/m 16,1 C 20,3 C 4,8 km/h (1 Bft)
30.07.2021 08:30 18,1 C 17,9 C 18,1 C 82 % 1011,7 hPa 0,0 l/m 2,5 km/h (1 Bft) S-SO 147 25 min 0,051 mm 1,5 UV-I 383 W/m 15,0 C 18,1 C 8,0 km/h (2 Bft)
30.07.2021 07:30 15,3 C 15,3 C 15,3 C 82 % 1011,8 hPa 0,0 l/m 6,3 km/h (2 Bft) S-SO 147 0 min 0,025 mm 0,0 UV-I 46 W/m 12,2 C 15,3 C 12,9 km/h (3 Bft)
30.07.2021 06:30 14,7 C 14,7 C 14,8 C 82 % 1011,8 hPa 0,0 l/m 4,0 km/h (1 Bft) O-SO 118 0 min 0,026 mm 0,0 UV-I 21 W/m 11,7 C 14,7 C 11,3 km/h (2 Bft)
30.07.2021 05:30 15,1 C 15,1 C 15,1 C 82 % 1011,7 hPa 0,0 l/m 6,7 km/h (2 Bft) O-SO 106 0 min 0,025 mm 0,0 UV-I 0 W/m 12,0 C 14,9 C 19,3 km/h (3 Bft)
30.07.2021 04:30 15,7 C 15,7 C 15,7 C 82 % 1011,6 hPa 0,0 l/m 7,0 km/h (2 Bft) O 99 0 min 0,026 mm 0,0 UV-I 0 W/m 12,6 C 15,4 C 14,5 km/h (3 Bft)
30.07.2021 03:30 16,0 C 16,0 C 16,1 C 82 % 1011,8 hPa 0,0 l/m 2,7 km/h (1 Bft) O 86 0 min 0,000 mm 0,0 UV-I 0 W/m 12,9 C 16,0 C 8,0 km/h (2 Bft)
30.07.2021 02:30 16,7 C 16,7 C 16,7 C 81 % 1011,9 hPa 0,0 l/m 3,4 km/h (1 Bft) O-SO 120 0 min 0,025 mm 0,0 UV-I 0 W/m 13,4 C 16,7 C 6,4 km/h (2 Bft)
30.07.2021 02:00 16,9 C 16,9 C 17,1 C 82 % 1012,1 hPa 0,0 l/m 3,9 km/h (1 Bft) O-SO 123 0 min 0,025 mm 0,0 UV-I 0 W/m 13,8 C 16,9 C 9,7 km/h (2 Bft)
_ Min-Zeit 06:45 06:45 06:50 14:55 18:30 - 18:15 - - - - - - 06:55 23:10 18:55
Minimum _ 14,6 C 14,6 C 14,6 C 51 % 1007,4 hPa - 0,0 km/h (0 Bft) - - - - - - 11,4 C 13,0 C 0,0 km/h (0 Bft)
_ Max-Zeit 15:50 16:10 15:50 07:55 02:00 23:15 23:10 - - 08:10 15:00 13:10 11:25 17:30 16:05 22:55
Maximum _ 28,4 C 28,3 C 28,4 C 83 % 1012,1 hPa 4,4 l/m 22,6 km/h
N-NO (4 Bft)
- - 5 min 0,559 mm 8,4 UV-I 984 W/m 20,6 C 28,4 C 45,1 km/h
N (6 Bft)
Durchschnitt _ 20,8 C 20,8 C 20,9 C 74 % 1010,2 hPa #14,0 l/m 4,1 km/h (1 Bft) N - #0 min. #0,025 mm 0,0 UV-I 0 W/m 15,9 C 20,7 C 9,2 km/h (2 Bft)
Rauscher Max - www.gruenau.tv